Time;durP1;ratioP1;P1;durP2;ratioP2;P2;SDS_P1;SDS_P2;PMS_P1;PMS_P2;Temp;Humidity;BMP_temperature;BMP_pressure;BME280_temperature;BME280_humidity;BME280_pressure;Samples;Min_cycle;Max_cycle;Signal;HPM_P1;HPM_P2
2021/09/24 00:00:53;;;;;;;5.15;3.22;;;;;;;22.89;42.87;101342.84;5017923;28;20060;-74
2021/09/24 00:03:20;;;;;;;7.32;3.85;;;;;;;22.88;42.66;101335.59;5045853;28;20203;-73
2021/09/24 00:05:47;;;;;;;6.20;3.08;;;;;;;22.88;42.55;101337.47;5045969;28;20045;-74
2021/09/24 00:08:14;;;;;;;5.22;2.90;;;;;;;22.88;42.83;101329.19;5045483;28;20053;-73
2021/09/24 00:10:41;;;;;;;4.97;3.28;;;;;;;22.88;42.81;101331.94;5029241;28;20044;-74
2021/09/24 00:13:07;;;;;;;6.97;3.58;;;;;;;22.88;42.41;101335.59;5027906;28;20049;-73
2021/09/24 00:15:34;;;;;;;5.07;3.05;;;;;;;22.88;42.92;101334.72;5042526;28;20069;-74
2021/09/24 00:18:02;;;;;;;5.30;3.28;;;;;;;22.89;42.60;101317.06;5008318;28;20049;-73
2021/09/24 00:20:28;;;;;;;5.80;3.60;;;;;;;22.88;42.46;101326.41;5029556;28;20255;-73
2021/09/24 00:22:55;;;;;;;5.53;3.40;;;;;;;22.87;42.77;101325.53;5046281;28;20044;-73
2021/09/24 00:25:22;;;;;;;7.68;3.58;;;;;;;22.87;42.63;101321.91;5046202;28;20044;-73
2021/09/24 00:27:48;;;;;;;6.40;3.88;;;;;;;22.87;42.70;101320.00;5021427;28;20069;-74
2021/09/24 00:30:15;;;;;;;5.85;3.50;;;;;;;22.87;42.42;101316.38;5026271;28;20495;-73
2021/09/24 00:32:41;;;;;;;6.00;3.42;;;;;;;22.86;42.47;101318.28;5025887;28;20698;-73
2021/09/24 00:35:08;;;;;;;6.40;3.35;;;;;;;22.87;42.66;101324.69;5027484;28;20045;-73
2021/09/24 00:37:35;;;;;;;6.53;3.75;;;;;;;22.86;42.82;101317.41;5029296;28;20056;-73
2021/09/24 00:40:04;;;;;;;6.45;3.80;;;;;;;22.86;42.72;101318.28;5012904;28;20045;-74
2021/09/24 00:42:30;;;;;;;6.10;3.90;;;;;;;22.86;42.95;101314.63;5012073;28;20046;-73
2021/09/24 00:44:57;;;;;;;6.03;3.55;;;;;;;22.85;42.47;101315.66;5012965;28;20053;-73
2021/09/24 00:47:24;;;;;;;6.15;3.50;;;;;;;22.85;42.54;101315.66;5012069;28;20053;-73
2021/09/24 00:49:50;;;;;;;6.70;3.63;;;;;;;22.84;42.44;101317.56;5030364;28;20747;-72
2021/09/24 00:52:18;;;;;;;6.75;4.30;;;;;;;22.84;42.62;101312.03;5026466;28;20443;-73
2021/09/24 00:54:47;;;;;;;6.70;4.53;;;;;;;22.84;43.11;101317.56;4992589;28;20543;-73
2021/09/24 00:57:15;;;;;;;7.35;5.00;;;;;;;22.82;43.05;101314.09;5005485;28;20099;-73
2021/09/24 00:59:41;;;;;;;7.20;4.70;;;;;;;22.82;42.53;101316.00;5010310;28;20089;-74
2021/09/24 01:02:08;;;;;;;7.80;4.97;;;;;;;22.81;43.24;101317.94;5030503;28;20081;-74
2021/09/24 01:04:35;;;;;;;8.73;5.47;;;;;;;22.80;43.29;101312.56;5029428;28;20045;-73
2021/09/24 01:07:03;;;;;;;8.27;5.78;;;;;;;22.79;42.77;101311.69;5029525;28;20302;-73
2021/09/24 01:09:30;;;;;;;7.82;5.65;;;;;;;22.78;43.35;101307.19;5028724;28;20140;-74
2021/09/24 01:11:57;;;;;;;8.98;5.57;;;;;;;22.77;43.32;101302.69;5020758;28;20048;-73
2021/09/24 01:14:30;;;;;;;8.15;5.15;;;;;;;22.80;43.38;101305.13;5048543;28;20461;-74
2021/09/24 01:16:57;;;;;;;7.03;4.18;;;;;;;22.76;43.25;101312.88;5049506;28;20049;-73
2021/09/24 01:19:26;;;;;;;6.72;4.30;;;;;;;22.76;43.06;101312.88;5049193;28;20053;-73
2021/09/24 01:21:53;;;;;;;6.75;4.47;;;;;;;22.75;43.51;101304.75;5049598;28;20135;-73
2021/09/24 01:24:20;;;;;;;6.28;4.22;;;;;;;22.74;42.88;101303.00;5048270;28;20045;-73
2021/09/24 01:26:49;;;;;;;5.65;3.92;;;;;;;22.74;43.09;101300.25;5049369;28;20268;-74
2021/09/24 01:29:16;;;;;;;5.47;3.85;;;;;;;22.73;43.03;101304.88;5030870;28;20068;-73
2021/09/24 01:31:44;;;;;;;6.15;4.03;;;;;;;22.73;43.21;101298.50;5029813;28;20050;-73
2021/09/24 01:34:10;;;;;;;7.35;4.30;;;;;;;22.71;43.57;101297.78;5028239;28;20064;-74
2021/09/24 01:36:38;;;;;;;8.65;4.65;;;;;;;22.71;43.28;101292.25;5013129;28;20095;-74
2021/09/24 01:39:07;;;;;;;6.25;4.40;;;;;;;22.71;43.59;101300.56;5048003;28;20512;-73
2021/09/24 01:41:37;;;;;;;6.93;4.07;;;;;;;22.69;43.73;101286.03;5048609;28;20084;-73
2021/09/24 01:44:04;;;;;;;6.22;4.65;;;;;;;22.65;42.92;101288.25;5028023;28;20096;-73
2021/09/24 01:46:31;;;;;;;9.18;5.05;;;;;;;22.64;43.49;101281.00;5010637;28;20450;-74
2021/09/24 01:48:57;;;;;;;7.35;4.53;;;;;;;22.62;44.06;101280.31;5030277;28;20399;-73
2021/09/24 01:51:24;;;;;;;10.80;4.78;;;;;;;22.62;43.64;101280.31;5031614;28;20126;-73
2021/09/24 01:53:51;;;;;;;7.63;5.07;;;;;;;22.60;44.03;101281.50;5028954;28;20076;-73
2021/09/24 01:56:21;;;;;;;8.10;5.18;;;;;;;22.62;44.15;101285.84;5028542;28;20119;-74
2021/09/24 01:58:48;;;;;;;7.97;4.78;;;;;;;22.58;43.80;101280.81;5040803;23;20548;-72
2021/09/24 02:01:14;;;;;;;7.50;4.60;;;;;;;22.56;43.99;101286.53;5047380;28;20110;-71
2021/09/24 02:03:41;;;;;;;7.85;4.90;;;;;;;22.56;44.23;101275.47;5046888;28;20073;-71
2021/09/24 02:06:08;;;;;;;8.02;4.88;;;;;;;22.55;43.78;101278.41;5047276;28;20330;-72
2021/09/24 02:08:35;;;;;;;8.20;4.63;;;;;;;22.53;43.89;101281.31;5032306;28;20049;-72
2021/09/24 02:11:02;;;;;;;7.88;4.68;;;;;;;22.52;44.11;101275.97;5052891;22;20045;-75
2021/09/24 02:13:28;;;;;;;9.63;5.53;;;;;;;22.49;43.96;101279.91;5028569;28;20049;-74
2021/09/24 02:15:55;;;;;;;7.78;5.35;;;;;;;22.48;43.97;101272.69;5047246;28;20254;-75
2021/09/24 02:18:21;;;;;;;11.38;6.75;;;;;;;22.46;44.15;101269.22;5046243;28;20053;-74
2021/09/24 02:20:48;;;;;;;10.90;6.28;;;;;;;22.45;44.21;101277.66;5046778;28;20056;-74
2021/09/24 02:23:14;;;;;;;11.30;6.90;;;;;;;22.42;44.36;101278.00;5046066;28;20045;-74
2021/09/24 02:25:41;;;;;;;12.27;6.95;;;;;;;22.39;44.73;101282.84;5046948;28;20664;-74
2021/09/24 02:28:08;;;;;;;11.77;6.93;;;;;;;22.40;44.49;101280.97;5028027;28;20559;-74
2021/09/24 02:30:34;;;;;;;12.85;7.32;;;;;;;22.38;44.56;101288.56;5056750;28;20135;-74
2021/09/24 02:33:01;;;;;;;12.15;7.43;;;;;;;22.36;44.81;101280.41;5042469;28;20045;-73
2021/09/24 02:35:27;;;;;;;12.05;7.47;;;;;;;22.35;44.96;101278.69;5046699;28;20080;-74
2021/09/24 02:37:54;;;;;;;12.32;7.30;;;;;;;22.34;44.98;101279.72;5045685;28;20099;-74
2021/09/24 02:40:21;;;;;;;11.05;7.28;;;;;;;22.34;44.70;101282.47;5046616;28;20095;-74
2021/09/24 02:42:47;;;;;;;11.52;7.38;;;;;;;22.33;44.99;101266.03;5045955;28;20044;-74
2021/09/24 02:45:14;;;;;;;12.02;7.25;;;;;;;22.31;45.03;101274.53;5046544;28;20049;-74
2021/09/24 02:47:40;;;;;;;12.27;7.60;;;;;;;22.31;45.30;101270.91;5045790;28;20438;-74
2021/09/24 02:50:08;;;;;;;11.63;7.47;;;;;;;22.31;45.28;101280.06;5046118;28;20053;-74
2021/09/24 02:52:35;;;;;;;12.40;6.95;;;;;;;22.29;45.06;101278.50;5045721;28;20080;-74
2021/09/24 02:55:02;;;;;;;11.15;7.03;;;;;;;22.28;45.05;101272.09;5046469;28;20052;-74
2021/09/24 02:57:29;;;;;;;11.23;7.05;;;;;;;22.28;45.30;101271.22;5044685;28;20089;-74
2021/09/24 02:59:55;;;;;;;12.80;7.57;;;;;;;22.29;45.18;101261.91;5036388;28;20512;-74
2021/09/24 03:02:22;;;;;;;13.50;7.63;;;;;;;22.28;45.47;101263.78;5027898;28;20053;-74
2021/09/24 03:04:49;;;;;;;11.18;7.30;;;;;;;22.27;45.85;101267.59;5045931;28;20080;-73
2021/09/24 03:07:16;;;;;;;10.43;6.75;;;;;;;22.28;45.71;101263.78;5045993;28;20056;-73
2021/09/24 03:09:43;;;;;;;10.55;6.93;;;;;;;22.27;45.38;101263.97;5044990;28;20095;-74
2021/09/24 03:12:09;;;;;;;11.57;7.35;;;;;;;22.27;45.54;101269.50;5046347;28;20613;-74
2021/09/24 03:14:36;;;;;;;9.85;6.60;;;;;;;22.28;45.74;101271.22;5045214;28;20041;-74
2021/09/24 03:17:03;;;;;;;10.68;7.32;;;;;;;22.28;46.04;101276.75;5045840;28;20049;-74
2021/09/24 03:19:29;;;;;;;10.27;6.43;;;;;;;22.27;45.81;101270.34;5044794;28;20052;-74
2021/09/24 03:21:56;;;;;;;11.90;7.32;;;;;;;22.28;45.44;101271.22;5028523;28;20045;-73
2021/09/24 03:24:23;;;;;;;10.68;6.82;;;;;;;22.27;45.71;101269.50;5044877;28;20072;-74
2021/09/24 03:26:49;;;;;;;12.75;7.28;;;;;;;22.27;45.61;101273.13;5045384;28;20068;-74
2021/09/24 03:29:16;;;;;;;10.25;6.90;;;;;;;22.28;45.67;101274.00;5051952;28;20052;-74
2021/09/24 03:31:43;;;;;;;10.50;6.53;;;;;;;22.27;45.79;101277.78;5028837;28;20052;-74
2021/09/24 03:34:10;;;;;;;12.65;7.07;;;;;;;22.28;45.48;101277.63;5044869;28;20079;-74
2021/09/24 03:36:37;;;;;;;12.15;7.38;;;;;;;22.27;45.89;101284.19;5027829;28;20457;-74
2021/09/24 03:39:11;;;;;;;11.15;6.63;;;;;;;22.30;46.19;101278.34;5027251;28;20052;-74
2021/09/24 03:41:39;;;;;;;10.10;6.95;;;;;;;22.28;45.82;101280.41;5028130;28;20464;-74
2021/09/24 03:44:05;;;;;;;12.30;7.30;;;;;;;22.25;45.89;101279.84;5044611;28;20059;-74
2021/09/24 03:46:32;;;;;;;11.98;7.03;;;;;;;22.24;46.24;101283.66;5044858;28;20126;-74
2021/09/24 03:48:59;;;;;;;12.13;6.88;;;;;;;22.23;45.64;101285.56;5044616;28;20102;-74
2021/09/24 03:51:26;;;;;;;13.85;8.13;;;;;;;22.22;45.77;101285.75;5045464;28;20537;-74
2021/09/24 03:53:53;;;;;;;12.77;7.55;;;;;;;22.21;45.76;101275.69;5029136;28;20053;-74
2021/09/24 03:56:20;;;;;;;14.00;8.50;;;;;;;22.18;45.68;101273.25;5026969;28;20059;-74
2021/09/24 03:58:46;;;;;;;13.88;8.23;;;;;;;22.17;45.96;101279.81;5044434;28;20506;-74
2021/09/24 04:01:13;;;;;;;14.18;8.35;;;;;;;22.17;45.85;101282.59;5044991;28;20052;-75
2021/09/24 04:03:42;;;;;;;13.43;8.40;;;;;;;22.14;46.25;101280.19;5027055;28;20153;-74
2021/09/24 04:06:10;;;;;;;15.10;8.90;;;;;;;22.14;45.88;101278.28;5027116;28;20092;-74
2021/09/24 04:08:37;;;;;;;14.43;8.45;;;;;;;22.14;46.39;101274.66;5044673;28;20449;-74
2021/09/24 04:11:04;;;;;;;12.95;8.63;;;;;;;22.14;46.67;101281.03;5029771;28;20560;-74
2021/09/24 04:13:31;;;;;;;13.95;8.00;;;;;;;22.13;46.15;101284.84;5048668;28;20122;-74
2021/09/24 04:15:57;;;;;;;13.30;7.85;;;;;;;22.13;46.33;101276.53;5048634;28;20084;-74
2021/09/24 04:18:24;;;;;;;13.02;8.00;;;;;;;22.13;46.31;101279.31;5048914;28;20072;-74
2021/09/24 04:20:50;;;;;;;12.65;8.05;;;;;;;22.15;46.08;101274.47;5049584;28;20049;-74
2021/09/24 04:23:17;;;;;;;13.50;8.48;;;;;;;22.15;46.45;101285.53;5048753;28;20499;-74
2021/09/24 04:25:44;;;;;;;13.80;8.98;;;;;;;22.15;46.33;101280.00;5048777;28;20414;-74
2021/09/24 04:28:11;;;;;;;11.80;7.60;;;;;;;22.16;45.93;101286.38;5030097;28;20472;-74
2021/09/24 04:30:37;;;;;;;13.10;8.02;;;;;;;22.16;45.99;101283.63;5038596;28;20130;-74
2021/09/24 04:33:04;;;;;;;13.05;8.32;;;;;;;22.16;46.00;101287.25;5048221;28;20056;-74
2021/09/24 04:35:30;;;;;;;11.70;7.68;;;;;;;22.18;45.94;101281.56;5031225;28;20055;-74
2021/09/24 04:37:57;;;;;;;11.77;7.80;;;;;;;22.18;46.06;101278.78;5030646;28;20123;-74
2021/09/24 04:40:24;;;;;;;13.52;7.85;;;;;;;22.18;46.03;101287.97;5048771;28;20052;-74
2021/09/24 04:42:50;;;;;;;10.52;7.28;;;;;;;22.19;46.05;101294.34;5047918;28;20478;-74
2021/09/24 04:45:17;;;;;;;13.00;7.85;;;;;;;22.19;45.89;101289.69;5048595;28;20128;-74
2021/09/24 04:47:43;;;;;;;12.48;8.10;;;;;;;22.19;46.24;101289.69;5030094;28;20044;-74
2021/09/24 04:50:11;;;;;;;12.02;8.10;;;;;;;22.19;46.29;101298.00;5048785;28;20055;-75
2021/09/24 04:52:37;;;;;;;11.65;7.28;;;;;;;22.18;45.79;101290.72;5023530;28;20148;-75
2021/09/24 04:55:05;;;;;;;11.00;7.22;;;;;;;22.19;46.03;101300.75;5014640;28;20059;-74
2021/09/24 04:57:32;;;;;;;12.00;7.50;;;;;;;22.19;45.81;101305.41;5046977;28;20057;-74
2021/09/24 04:59:59;;;;;;;13.77;8.02;;;;;;;22.18;46.25;101303.69;5048428;28;20555;-74
2021/09/24 05:02:26;;;;;;;12.25;8.02;;;;;;;22.18;45.86;101300.91;5029923;28;20085;-74
2021/09/24 05:04:52;;;;;;;12.75;7.95;;;;;;;22.16;46.08;101301.06;5048702;28;20490;-74
2021/09/24 05:07:19;;;;;;;11.68;7.78;;;;;;;22.15;46.05;101293.84;5029575;28;20497;-74
2021/09/24 05:09:46;;;;;;;11.05;7.13;;;;;;;22.14;46.06;101303.16;5030502;28;20495;-74
2021/09/24 05:12:12;;;;;;;11.10;7.18;;;;;;;22.13;46.44;101297.81;5049093;28;20049;-75
2021/09/24 05:14:39;;;;;;;11.68;7.82;;;;;;;22.10;46.01;101299.00;5046938;28;20510;-75
2021/09/24 05:17:05;;;;;;;11.48;7.88;;;;;;;22.09;46.07;101300.03;5048329;28;20414;-75
2021/09/24 05:19:32;;;;;;;13.02;7.85;;;;;;;22.08;46.46;101298.28;5047635;28;20053;-75
2021/09/24 05:21:59;;;;;;;13.82;8.73;;;;;;;22.08;46.14;101298.28;5048058;28;20124;-75
2021/09/24 05:24:25;;;;;;;13.38;8.57;;;;;;;22.02;46.08;101294.28;5029337;28;20049;-75
2021/09/24 05:26:52;;;;;;;13.07;9.10;;;;;;;22.02;46.37;101296.19;5047814;28;20072;-75
2021/09/24 05:29:18;;;;;;;14.80;9.18;;;;;;;21.99;46.63;101302.03;5047436;28;20131;-75
2021/09/24 05:31:46;;;;;;;12.77;8.68;;;;;;;21.97;46.39;101293.94;5029847;28;20068;-76
2021/09/24 05:34:12;;;;;;;15.10;9.48;;;;;;;21.94;46.61;101305.28;5029498;28;20063;-75
2021/09/24 05:36:39;;;;;;;14.65;9.27;;;;;;;21.90;46.44;101298.38;5047595;28;20368;-75
2021/09/24 05:39:06;;;;;;;15.88;9.90;;;;;;;21.89;46.64;101306.81;5046857;28;20052;-75
2021/09/24 05:41:32;;;;;;;14.30;9.65;;;;;;;21.85;46.64;101303.50;5047532;28;20067;-75
2021/09/24 05:43:59;;;;;;;15.23;9.88;;;;;;;21.81;46.98;101301.25;5029189;28;20049;-75
2021/09/24 05:46:25;;;;;;;13.85;9.35;;;;;;;21.79;46.85;101292.25;5047549;28;20175;-75
2021/09/24 05:48:52;;;;;;;14.70;9.30;;;;;;;21.77;46.71;101299.81;5029095;28;20144;-74
2021/09/24 05:51:19;;;;;;;15.38;9.23;;;;;;;21.76;46.75;101306.38;5046822;28;20065;-75
2021/09/24 05:53:45;;;;;;;14.70;9.40;;;;;;;21.75;47.05;101299.97;5046521;28;20136;-74
2021/09/24 05:56:12;;;;;;;12.98;8.75;;;;;;;21.72;47.14;101299.47;5047725;28;20045;-74
2021/09/24 05:58:39;;;;;;;12.43;9.18;;;;;;;21.71;46.86;101290.31;5049070;28;20148;-74
2021/09/24 06:01:15;;;;;;;14.77;9.30;;;;;;;21.67;47.10;101297.16;5035277;28;20501;-74
2021/09/24 06:03:42;;;;;;;11.88;8.20;;;;;;;21.67;46.83;101296.31;5028965;28;20041;-75
2021/09/24 06:06:08;;;;;;;13.57;9.13;;;;;;;21.64;47.04;101295.63;5046881;28;20076;-75
2021/09/24 06:08:35;;;;;;;13.05;8.40;;;;;;;21.62;47.27;101289.38;5046637;28;20065;-75
2021/09/24 06:11:02;;;;;;;13.15;9.15;;;;;;;21.61;46.96;101290.41;5047133;28;20152;-75
2021/09/24 06:13:28;;;;;;;12.63;8.85;;;;;;;21.59;47.60;101292.47;5046741;28;20069;-75
2021/09/24 06:15:55;;;;;;;11.85;7.85;;;;;;;21.57;47.13;101297.31;5029541;28;20114;-74
2021/09/24 06:18:22;;;;;;;12.95;8.75;;;;;;;21.57;47.72;101291.78;5045996;28;20502;-75
2021/09/24 06:20:48;;;;;;;10.25;6.70;;;;;;;21.54;47.15;101289.34;5029330;28;20579;-74
2021/09/24 06:23:15;;;;;;;10.25;7.25;;;;;;;21.55;47.34;101299.38;5028391;28;20119;-75
2021/09/24 06:25:41;;;;;;;11.50;7.57;;;;;;;21.54;47.10;101297.63;5046847;28;20055;-70
2021/09/24 06:28:08;;;;;;;10.90;7.93;;;;;;;21.55;46.90;101296.59;5045772;28;20131;-73
2021/09/24 06:30:34;;;;;;;10.32;7.80;;;;;;;21.57;47.18;101304.72;5056660;28;20084;-73
2021/09/24 06:33:01;;;;;;;9.57;6.10;;;;;;;21.54;47.07;101303.16;5050587;28;20084;-64
2021/09/24 06:35:27;;;;;;;9.57;6.18;;;;;;;21.53;47.17;101303.31;5046797;28;20049;-65
2021/09/24 06:37:54;;;;;;;9.50;6.88;;;;;;;21.54;47.39;101299.53;5045261;28;20428;-71
2021/09/24 06:40:20;;;;;;;10.65;6.53;;;;;;;21.53;47.20;101297.78;5046624;28;20084;-71
2021/09/24 06:42:47;;;;;;;9.05;6.40;;;;;;;21.54;47.55;101294.00;5045891;28;20140;-72
2021/09/24 06:45:14;;;;;;;11.02;6.75;;;;;;;21.53;47.70;101293.13;5046758;28;20072;-75
2021/09/24 06:47:42;;;;;;;9.85;6.97;;;;;;;21.56;47.06;101297.47;5044889;28;20564;-74
2021/09/24 06:50:09;;;;;;;8.65;6.15;;;;;;;21.54;47.19;101296.75;5046591;28;20076;-74
2021/09/24 06:52:36;;;;;;;10.65;7.00;;;;;;;21.52;47.61;101298.81;5039251;28;20497;-73
2021/09/24 06:55:03;;;;;;;8.98;6.28;;;;;;;21.52;47.16;101299.69;5026643;28;20350;-73
2021/09/24 06:57:30;;;;;;;9.68;6.47;;;;;;;21.51;47.77;101303.47;5013380;28;20102;-73
2021/09/24 06:59:57;;;;;;;9.88;6.57;;;;;;;21.51;47.56;101297.06;5050989;28;20139;-74
2021/09/24 07:02:24;;;;;;;10.85;6.32;;;;;;;21.50;47.73;101300.84;5041945;28;20136;-73
2021/09/24 07:04:51;;;;;;;9.50;6.38;;;;;;;21.50;47.68;101306.38;5028558;28;20057;-73
2021/09/24 07:07:22;;;;;;;9.50;6.20;;;;;;;21.50;47.41;101309.16;5045045;28;20048;-74
2021/09/24 07:09:48;;;;;;;9.25;5.82;;;;;;;21.49;47.66;101307.44;5028636;28;20099;-74
2021/09/24 07:12:15;;;;;;;8.75;6.10;;;;;;;21.49;47.30;101305.56;5046167;28;20538;-74
2021/09/24 07:14:42;;;;;;;7.93;5.40;;;;;;;21.49;47.31;101301.91;5044918;28;20045;-74
2021/09/24 07:17:09;;;;;;;7.97;5.30;;;;;;;21.48;47.74;101300.19;5045808;28;20566;-74
2021/09/24 07:19:35;;;;;;;9.48;5.57;;;;;;;21.49;47.43;101305.56;5027726;28;20506;-74
2021/09/24 07:22:02;;;;;;;10.27;6.13;;;;;;;21.49;47.37;101302.78;5028416;28;20075;-74
2021/09/24 07:24:28;;;;;;;9.57;6.18;;;;;;;21.50;47.83;101298.09;5045229;28;20498;-73
2021/09/24 07:26:55;;;;;;;9.40;6.20;;;;;;;21.49;47.64;101307.44;5045361;28;20052;-73
2021/09/24 07:29:22;;;;;;;10.75;6.10;;;;;;;21.49;47.75;101307.44;5053091;28;20136;-74
2021/09/24 07:31:48;;;;;;;8.82;6.40;;;;;;;21.49;47.42;101316.59;5065892;28;20047;-74
2021/09/24 07:34:15;;;;;;;11.18;6.70;;;;;;;21.48;47.19;101314.00;5048208;28;20053;-74
2021/09/24 07:36:41;;;;;;;9.98;6.70;;;;;;;21.47;47.34;101309.50;5045610;28;20124;-74
2021/09/24 07:39:08;;;;;;;12.02;6.85;;;;;;;21.46;47.34;101308.63;5044870;28;20376;-74
2021/09/24 07:41:34;;;;;;;10.93;6.63;;;;;;;21.46;47.57;101313.28;5045899;28;20594;-74
2021/09/24 07:44:03;;;;;;;11.52;7.20;;;;;;;21.44;47.86;101310.69;5026623;28;20503;-74
2021/09/24 07:46:32;;;;;;;11.60;7.32;;;;;;;21.42;47.48;101307.19;5044737;28;20076;-74
2021/09/24 07:48:59;;;;;;;12.18;6.72;;;;;;;21.39;48.06;101306.66;5044429;28;20504;-74
2021/09/24 07:51:26;;;;;;;12.43;7.50;;;;;;;21.37;47.86;101315.13;5045777;28;20132;-74
2021/09/24 07:53:53;;;;;;;10.98;6.85;;;;;;;21.36;47.68;101307.84;5037659;28;20047;-74
2021/09/24 07:56:19;;;;;;;11.65;6.70;;;;;;;21.34;47.91;101314.56;5045431;28;20449;-74
2021/09/24 07:58:46;;;;;;;11.80;7.68;;;;;;;21.34;48.10;101317.31;5047429;28;20131;-74
2021/09/24 08:01:12;;;;;;;12.40;7.25;;;;;;;21.33;47.93;101318.38;5050375;28;20060;-74
2021/09/24 08:03:39;;;;;;;11.68;6.90;;;;;;;21.32;47.85;101320.28;5043973;28;20095;-74
2021/09/24 08:06:06;;;;;;;11.88;7.68;;;;;;;21.32;48.20;101331.31;5044970;28;20144;-73
2021/09/24 08:08:33;;;;;;;11.77;7.03;;;;;;;21.33;48.42;101330.25;5044397;28;20068;-74
2021/09/24 08:11:00;;;;;;;13.68;7.85;;;;;;;21.35;48.00;101339.25;5033803;23;20475;-75
2021/09/24 08:13:27;;;;;;;13.40;8.70;;;;;;;21.38;48.59;101338.09;5024079;28;20511;-75
2021/09/24 08:15:54;;;;;;;13.77;8.07;;;;;;;21.40;48.22;101338.78;5025279;28;20507;-73
2021/09/24 08:18:23;;;;;;;13.57;8.02;;;;;;;21.40;48.15;101342.44;5024303;28;20475;-73
2021/09/24 08:20:50;;;;;;;13.50;8.15;;;;;;;21.42;48.10;101343.13;5025638;28;20057;-73
2021/09/24 08:23:17;;;;;;;11.68;8.00;;;;;;;21.44;48.11;101342.97;5024432;28;20545;-73
2021/09/24 08:25:44;;;;;;;10.77;6.85;;;;;;;21.45;48.28;101350.22;5025000;28;20057;-72
2021/09/24 08:28:10;;;;;;;11.07;7.00;;;;;;;21.46;48.19;101351.97;4998536;28;20198;-73
2021/09/24 08:30:37;;;;;;;10.57;6.88;;;;;;;21.47;48.38;101351.81;5005565;28;20514;-75
2021/09/24 08:33:03;;;;;;;10.57;6.78;;;;;;;21.49;48.53;101349.75;5004564;28;20049;-75
2021/09/24 08:35:31;;;;;;;10.43;7.03;;;;;;;21.52;48.42;101352.19;5006109;28;20358;-76
2021/09/24 08:37:58;;;;;;;10.18;7.05;;;;;;;21.55;48.39;101348.22;5004296;28;20046;-75
2021/09/24 08:40:27;;;;;;;10.93;7.18;;;;;;;21.58;47.93;101359.81;5005274;28;20050;-75
2021/09/24 08:42:54;;;;;;;13.18;6.50;;;;;;;21.57;47.96;101352.56;5003847;28;20054;-75
2021/09/24 08:45:29;;;;;;;11.48;6.97;;;;;;;21.61;48.42;101348.44;5005646;28;20133;-75
2021/09/24 08:47:59;;;;;;;11.48;6.55;;;;;;;21.62;48.31;101357.59;5003873;28;20073;-75
2021/09/24 08:50:27;;;;;;;10.13;6.22;;;;;;;21.62;48.25;101357.59;5005536;28;20451;-73
2021/09/24 08:52:54;;;;;;;10.13;6.60;;;;;;;21.62;48.18;101355.72;4995375;28;20046;-75
2021/09/24 08:55:21;;;;;;;9.82;5.88;;;;;;;21.64;48.19;101352.78;5000060;28;20050;-75
2021/09/24 08:57:49;;;;;;;10.23;6.03;;;;;;;21.66;48.21;101355.41;5007691;28;20080;-75
2021/09/24 09:00:16;;;;;;;9.68;6.07;;;;;;;21.67;48.21;101354.34;4991094;28;20157;-73
2021/09/24 09:03:10;;;;;;;10.32;5.88;;;;;;;21.68;48.58;101347.78;5008093;28;20057;-73
2021/09/24 09:05:49;;;;;;;8.52;5.40;;;;;;;21.68;47.88;101348.66;5009253;28;20038;-73
2021/09/24 09:08:17;;;;;;;10.55;5.93;;;;;;;21.69;47.91;101349.53;5008768;28;20077;-73
2021/09/24 09:10:56;;;;;;;7.72;4.90;;;;;;;21.73;48.03;101353.72;4991599;28;20081;-73
2021/09/24 09:13:30;;;;;;;9.68;5.45;;;;;;;21.73;47.88;101351.81;5007636;28;20073;-72
2021/09/24 09:16:03;;;;;;;8.38;5.13;;;;;;;21.75;48.67;101344.22;5008537;28;20136;-73
2021/09/24 09:18:33;;;;;;;8.73;5.25;;;;;;;21.76;48.54;101345.94;4990158;28;20129;-73
2021/09/24 09:21:03;;;;;;;9.20;5.78;;;;;;;21.80;48.13;101341.84;4991142;28;20677;-73
2021/09/24 09:23:31;;;;;;;8.30;4.95;;;;;;;21.82;48.31;101330.63;5007650;28;20097;-72
2021/09/24 09:26:01;;;;;;;7.22;4.70;;;;;;;21.85;48.32;101333.03;4990485;28;20084;-73
2021/09/24 09:28:33;;;;;;;8.55;5.25;;;;;;;21.87;48.66;101328.22;4988879;28;20571;-75
2021/09/24 09:31:01;;;;;;;8.75;4.78;;;;;;;21.89;48.60;101334.47;5008332;28;20049;-75
2021/09/24 09:33:28;;;;;;;8.18;4.78;;;;;;;21.97;48.48;101337.31;5007367;28;20137;-75
2021/09/24 09:35:59;;;;;;;7.65;4.32;;;;;;;22.03;48.65;101336.63;5007936;28;20087;-75
2021/09/24 09:38:38;;;;;;;8.35;4.50;;;;;;;22.11;48.85;101335.81;5007558;28;20072;-75
2021/09/24 09:41:11;;;;;;;7.45;4.28;;;;;;;22.16;48.55;101337.03;5008217;28;20145;-75
2021/09/24 09:43:39;;;;;;;;;;;;;;;21.93;48.64;101327.56;5007755;28;20589;-75
2021/09/24 09:46:17;;;;;;;6.57;3.63;;;;;;;22.26;48.56;101326.72;5008122;28;20287;-73
2021/09/24 09:49:00;;;;;;;5.45;3.63;;;;;;;22.36;48.48;101330.22;5007177;28;20462;-73
2021/09/24 09:51:26;;;;;;;5.40;3.60;;;;;;;22.41;48.40;101324.16;5008294;28;20092;-73
2021/09/24 09:53:53;;;;;;;6.85;3.90;;;;;;;22.50;47.94;101325.06;5006981;28;20141;-74
2021/09/24 09:56:20;;;;;;;7.13;3.80;;;;;;;22.56;47.91;101318.88;5007280;28;20773;-74
2021/09/24 09:58:47;;;;;;;6.53;3.92;;;;;;;22.62;47.96;101316.28;5006672;28;20386;-74
2021/09/24 10:01:16;;;;;;;8.00;3.80;;;;;;;22.68;47.52;101315.59;5017220;28;20148;-74
2021/09/24 10:03:51;;;;;;;5.38;3.17;;;;;;;22.79;47.62;101313.59;5006322;28;20133;-74
2021/09/24 10:06:25;;;;;;;6.22;3.17;;;;;;;22.82;47.74;101314.09;4990107;28;20081;-73
2021/09/24 10:08:57;;;;;;;6.07;3.53;;;;;;;22.90;47.21;101319.63;5006468;28;20149;-73
2021/09/24 10:11:32;;;;;;;5.73;3.50;;;;;;;22.95;46.64;101320.00;5007491;28;20096;-74
2021/09/24 10:14:04;;;;;;;8.25;3.63;;;;;;;22.99;47.15;101317.75;5006533;28;20317;-73
2021/09/24 10:16:37;;;;;;;7.05;4.10;;;;;;;23.04;46.35;101307.03;5007241;28;20085;-74
2021/09/24 10:19:04;;;;;;;7.03;3.90;;;;;;;23.04;46.94;101302.38;5006534;28;20061;-74
2021/09/24 10:21:48;;;;;;;7.18;3.88;;;;;;;23.07;46.93;101307.53;5008009;28;20077;-74
2021/09/24 10:24:15;;;;;;;6.55;3.90;;;;;;;23.11;46.55;101306.16;5006434;28;20123;-73
2021/09/24 10:26:44;;;;;;;7.35;4.22;;;;;;;23.14;46.08;101300.25;5006823;28;20125;-74
2021/09/24 10:29:26;;;;;;;7.10;4.35;;;;;;;23.20;46.16;101298.72;5006317;28;20073;-74
2021/09/24 10:31:52;;;;;;;6.97;4.88;;;;;;;23.18;46.39;101291.63;5001265;28;20136;-73
2021/09/24 10:34:22;;;;;;;7.55;4.57;;;;;;;23.22;46.18;101293.88;5006611;28;20073;-73
2021/09/24 10:36:54;;;;;;;8.00;4.57;;;;;;;23.24;45.77;101294.56;5019807;28;20543;-74
2021/09/24 10:39:30;;;;;;;6.25;4.22;;;;;;;23.24;45.40;101302.00;5025778;28;20068;-74
2021/09/24 10:42:15;;;;;;;8.30;3.90;;;;;;;23.22;45.84;101298.56;5027121;28;20132;-75
2021/09/24 10:45:06;;;;;;;7.80;4.25;;;;;;;23.22;46.00;101304.97;5026273;28;20772;-74
2021/09/24 10:47:48;;;;;;;7.88;4.28;;;;;;;23.25;45.56;101300.97;5025066;28;20168;-75
2021/09/24 10:50:33;;;;;;;7.45;4.85;;;;;;;23.25;45.61;101303.72;5009248;28;20050;-75
2021/09/24 10:55:52;;;;;;;6.85;4.88;;;;;;;23.25;45.64;101301.81;5006458;28;20132;-75
2021/09/24 10:58:27;;;;;;;8.32;4.63;;;;;;;23.27;45.35;101290.59;5005802;28;20060;-75
2021/09/24 11:01:11;;;;;;;7.95;4.95;;;;;;;23.25;45.53;101290.75;5000489;28;20523;-75
2021/09/24 11:03:59;;;;;;;8.00;4.97;;;;;;;23.28;45.22;101295.09;5006345;28;20419;-75
2021/09/24 11:06:48;;;;;;;6.65;4.40;;;;;;;23.27;45.48;101285.91;5007739;28;20109;-75
2021/09/24 11:09:17;;;;;;;8.15;4.90;;;;;;;23.32;45.46;101285.38;5005677;28;20064;-74
2021/09/24 11:12:01;;;;;;;8.15;4.97;;;;;;;23.38;45.68;101290.22;5006808;28;20483;-75
2021/09/24 11:14:38;;;;;;;6.30;4.43;;;;;;;23.41;45.64;101281.56;5005587;28;20141;-74
2021/09/24 11:17:07;;;;;;;8.05;4.40;;;;;;;23.44;45.48;101279.31;5006283;28;20144;-75
2021/09/24 11:19:49;;;;;;;7.78;4.78;;;;;;;23.51;45.46;101285.03;5005572;28;20069;-75
2021/09/24 11:22:19;;;;;;;;;;;;;;;23.25;45.80;101281.56;5006955;28;20046;-75
2021/09/24 11:25:07;;;;;;;7.38;4.25;;;;;;;23.52;45.35;101276.56;5005662;28;19967;-75
2021/09/24 11:27:37;;;;;;;7.53;4.22;;;;;;;23.61;45.34;101274.63;5004979;28;20145;-74
2021/09/24 11:30:05;;;;;;;6.40;3.67;;;;;;;23.61;45.22;101268.22;5005798;28;20157;-75